Terminal Aerodrome Forecast
Issued by NWS Charleston, WV

Current Version | Previous Version | Graphics & Text | Print | Product List | Glossary On
Versions: 1 2 3 4 5 6 7 8 9 10 11 12 13 14 15 16 17 18 19 20 21 22 23
000
FTUS41 KRLX 230500 RRA
TAFHTS
TAF
KHTS 230550Z 2306/2406 00000KT P6SM OVC025
     FM231100 00000KT P6SM SCT060
     FM232000 05004KT 5SM -RA BR OVC025
     FM240100 03005KT 1 1/2SM -RA BR OVC015
     FM240400 36006KT 3/4SM -RASN BR OVC008=

USA.gov is the U.S. government's official web portal to all federal, state and local government web resources and services.